createdAt,value
2019-06-20T00:00:02.158Z,18.1
2019-06-20T00:05:01.797Z,18.2
2019-06-20T00:10:01.358Z,18.2
2019-06-20T00:15:02.113Z,18.1
2019-06-20T00:20:01.894Z,18.1
2019-06-20T00:25:02.906Z,18.1
2019-06-20T00:30:02.034Z,18.2
2019-06-20T00:35:02.192Z,18.1
2019-06-20T00:40:01.648Z,18.1
2019-06-20T00:45:02.490Z,18
2019-06-20T00:50:01.514Z,17.9
2019-06-20T00:55:01.889Z,17.9
2019-06-20T01:00:01.970Z,17.8
2019-06-20T01:05:01.763Z,17.7
2019-06-20T01:10:02.131Z,17.7
2019-06-20T01:15:01.959Z,17.8
2019-06-20T01:20:01.830Z,17.8
2019-06-20T01:25:01.493Z,17.8
2019-06-20T01:30:01.195Z,17.7
2019-06-20T01:35:02.166Z,17.7
2019-06-20T01:40:01.838Z,17.8
2019-06-20T01:45:01.793Z,17.8
2019-06-20T01:50:01.464Z,17.8
2019-06-20T01:55:02.283Z,17.7
2019-06-20T02:00:01.537Z,17.7
2019-06-20T02:05:01.772Z,17.8
2019-06-20T02:10:01.680Z,17.7
2019-06-20T02:15:01.893Z,17.7
2019-06-20T02:20:01.715Z,17.7
2019-06-20T02:25:02.300Z,17.6
2019-06-20T02:30:01.726Z,17.6
2019-06-20T02:35:01.813Z,17.5
2019-06-20T02:40:01.768Z,17.4
2019-06-20T02:45:01.830Z,17.3
2019-06-20T02:50:01.973Z,17.2
2019-06-20T02:55:01.272Z,17.2
2019-06-20T03:00:01.941Z,17.2
2019-06-20T03:05:02.002Z,17.2
2019-06-20T03:10:01.429Z,17.1
2019-06-20T03:15:01.945Z,17.1
2019-06-20T03:20:02.019Z,17.1
2019-06-20T03:25:01.617Z,17.2
2019-06-20T03:30:01.373Z,17.2
2019-06-20T03:35:02.222Z,17.3
2019-06-20T03:40:01.361Z,17.3
2019-06-20T03:45:02.616Z,17.4
2019-06-20T03:50:01.532Z,17.4
2019-06-20T03:55:01.513Z,17.5
2019-06-20T04:00:02.110Z,17.6
2019-06-20T04:05:01.429Z,17.7
2019-06-20T04:10:01.437Z,17.8
2019-06-20T04:15:15.016Z,17.9
2019-06-20T04:20:02.147Z,18
2019-06-20T04:25:01.849Z,18
2019-06-20T04:30:01.757Z,18
2019-06-20T04:35:02.056Z,18
2019-06-20T04:40:01.764Z,18
2019-06-20T04:45:01.721Z,18
2019-06-20T04:50:03.201Z,18
2019-06-20T04:55:02.068Z,18
2019-06-20T05:00:01.899Z,18.2
2019-06-20T05:05:01.657Z,18.4
2019-06-20T05:10:02.019Z,18.6
2019-06-20T05:15:01.943Z,18.6
2019-06-20T05:20:02.061Z,18.6
2019-06-20T05:25:01.869Z,18.6
2019-06-20T05:30:02.144Z,18.6
2019-06-20T05:35:03.024Z,18.7
2019-06-20T05:40:01.836Z,18.7
2019-06-20T05:45:01.338Z,18.9
2019-06-20T05:50:01.776Z,19.1
2019-06-20T05:55:01.374Z,19.3
2019-06-20T06:00:02.162Z,19.4
2019-06-20T06:05:01.731Z,19.5
2019-06-20T06:10:03.960Z,19.8
2019-06-20T06:15:01.987Z,19.9
2019-06-20T06:20:01.923Z,20.1
2019-06-20T06:25:01.723Z,20.3
2019-06-20T06:30:01.983Z,20.3
2019-06-20T06:35:01.599Z,20.5
2019-06-20T06:40:01.374Z,20.7
2019-06-20T06:45:01.593Z,20.6
2019-06-20T06:50:01.400Z,20.6
2019-06-20T06:55:01.494Z,20.7
2019-06-20T07:00:02.657Z,20.9
2019-06-20T07:05:02.152Z,20.9
2019-06-20T07:10:01.408Z,20.9
2019-06-20T07:15:01.932Z,21
2019-06-20T07:20:01.775Z,21.1
2019-06-20T07:25:01.331Z,21.6
2019-06-20T07:30:01.667Z,22
2019-06-20T07:35:01.900Z,21.9
2019-06-20T07:40:02.002Z,21.8
2019-06-20T07:45:01.831Z,21.4
2019-06-20T07:50:01.874Z,21.3
2019-06-20T07:55:01.589Z,21.1
2019-06-20T08:00:02.025Z,20.9
2019-06-20T08:05:01.806Z,20.7
2019-06-20T08:10:01.773Z,20.6
2019-06-20T08:15:14.293Z,20.4
2019-06-20T08:20:02.527Z,20.3
2019-06-20T08:25:01.182Z,20.3
2019-06-20T08:30:01.338Z,20.2
2019-06-20T08:35:02.566Z,20.3
2019-06-20T08:40:02.202Z,20.2
2019-06-20T08:45:01.764Z,20.4
2019-06-20T08:50:02.094Z,20.6
2019-06-20T08:55:01.637Z,21.2
2019-06-20T09:10:02.058Z,21.3
2019-06-20T09:15:02.959Z,21.2
2019-06-20T09:20:02.825Z,21.8
2019-06-20T09:25:02.918Z,22
2019-06-20T09:30:03.447Z,22.5
2019-06-20T09:35:02.901Z,22.8
2019-06-20T09:40:03.565Z,22.9
2019-06-20T09:45:02.829Z,22.9
2019-06-20T09:50:02.086Z,23.2
2019-06-20T09:55:01.845Z,22.9
2019-06-20T10:00:09.331Z,22.5
2019-06-20T10:05:01.413Z,22.1
2019-06-20T10:10:01.845Z,21.8
2019-06-20T10:15:02.103Z,21.7
2019-06-20T10:20:01.993Z,21.6
2019-06-20T10:25:01.443Z,21.5
2019-06-20T10:30:13.708Z,21.6
2019-06-20T10:35:02.284Z,22.8
2019-06-20T10:40:01.472Z,23.4
2019-06-20T10:45:01.470Z,23.3
2019-06-20T10:50:01.769Z,22.7
2019-06-20T10:55:01.865Z,22.4
2019-06-20T11:00:01.993Z,22.2
2019-06-20T11:05:01.461Z,22
2019-06-20T11:10:01.666Z,21.7
2019-06-20T11:15:01.255Z,21.7
2019-06-20T11:20:03.011Z,21.8
2019-06-20T11:25:02.012Z,22.8
2019-06-20T11:30:01.538Z,23.4
2019-06-20T11:35:01.415Z,23.6
2019-06-20T11:40:01.471Z,23.5
2019-06-20T11:45:01.886Z,23.6
2019-06-20T11:50:01.904Z,23.6
2019-06-20T11:55:01.793Z,23.2
2019-06-20T12:00:01.765Z,23.1
2019-06-20T12:05:01.987Z,22.9
2019-06-20T12:10:01.606Z,22.7
2019-06-20T12:15:01.677Z,22.4
2019-06-20T12:20:01.557Z,22.1
2019-06-20T12:25:01.689Z,22.3
2019-06-20T12:30:01.728Z,22.9
2019-06-20T12:35:01.694Z,23.6
2019-06-20T12:40:01.478Z,24.1
2019-06-20T12:45:01.914Z,24.2
2019-06-20T12:50:01.885Z,24.1
2019-06-20T12:55:02.068Z,23.1
2019-06-20T13:00:01.308Z,22.4
2019-06-20T13:05:01.212Z,22.1
2019-06-20T13:10:02.107Z,21.7
2019-06-20T13:15:01.614Z,21.6
2019-06-20T13:20:01.442Z,21.5
2019-06-20T13:25:01.976Z,21.4
2019-06-20T13:30:01.656Z,21.4
2019-06-20T13:35:01.198Z,21.4
2019-06-20T13:40:01.949Z,21.3
2019-06-20T13:45:01.548Z,21.3
2019-06-20T13:50:01.700Z,21.3
2019-06-20T13:55:01.994Z,21.3
2019-06-20T14:00:01.646Z,21.3
2019-06-20T14:05:01.526Z,21.4
2019-06-20T14:10:01.385Z,21.5
2019-06-20T14:15:02.298Z,21.5
2019-06-20T14:20:02.014Z,21.5
2019-06-20T14:25:01.172Z,21.6
2019-06-20T14:30:01.495Z,21.7
2019-06-20T14:35:01.795Z,21.8
2019-06-20T14:40:01.351Z,21.9
2019-06-20T14:45:01.669Z,22.2
2019-06-20T14:50:02.204Z,22.8
2019-06-20T14:55:01.954Z,23.2
2019-06-20T15:00:01.767Z,23.4
2019-06-20T15:05:01.908Z,23.3
2019-06-20T15:10:01.532Z,22.9
2019-06-20T15:15:01.802Z,22.9
2019-06-20T15:20:01.574Z,22.8
2019-06-20T15:25:01.421Z,22.8
2019-06-20T15:30:01.794Z,23
2019-06-20T15:35:01.925Z,23.2
2019-06-20T15:40:01.857Z,23.7
2019-06-20T15:45:01.852Z,23.3
2019-06-20T15:50:02.168Z,23.1
2019-06-20T15:55:01.400Z,23.1
2019-06-20T16:00:01.321Z,23.9
2019-06-20T16:05:01.967Z,24.4
2019-06-20T16:10:02.190Z,24.6
2019-06-20T16:15:01.646Z,24.1
2019-06-20T16:20:02.107Z,24
2019-06-20T16:25:01.615Z,24.3
2019-06-20T16:30:02.107Z,24.5
2019-06-20T16:35:01.958Z,24
2019-06-20T16:40:01.497Z,23.6
2019-06-20T16:45:01.305Z,23.2
2019-06-20T16:50:02.235Z,23
2019-06-20T16:55:01.710Z,22.9
2019-06-20T17:00:02.349Z,22.8
2019-06-20T17:05:02.000Z,22.8
2019-06-20T17:10:02.051Z,23.1
2019-06-20T17:15:01.432Z,23.5
2019-06-20T17:20:01.461Z,23.5
2019-06-20T17:25:02.019Z,23.3
2019-06-20T17:30:02.012Z,23.1
2019-06-20T17:35:02.310Z,23.1
2019-06-20T17:40:02.448Z,23
2019-06-20T17:45:02.032Z,22.9
2019-06-20T17:50:01.916Z,22.8
2019-06-20T17:55:01.844Z,22.8
2019-06-20T18:00:02.627Z,22.7
2019-06-20T18:05:01.502Z,22.7
2019-06-20T18:10:01.814Z,22.5
2019-06-20T18:15:02.045Z,22.4
2019-06-20T18:20:01.866Z,22.2
2019-06-20T18:25:02.004Z,22.1
2019-06-20T18:30:02.162Z,22
2019-06-20T18:35:02.666Z,21.8
2019-06-20T18:40:02.219Z,21.8
2019-06-20T18:45:02.270Z,21.7
2019-06-20T18:50:01.418Z,21.5
2019-06-20T18:55:02.003Z,21.4
2019-06-20T19:00:01.623Z,21.3
2019-06-20T19:05:01.265Z,21.2
2019-06-20T19:10:02.485Z,21.1
2019-06-20T19:15:01.361Z,21
2019-06-20T19:20:01.737Z,20.9
2019-06-20T19:25:03.993Z,20.8
2019-06-20T19:30:01.312Z,20.7
2019-06-20T19:35:02.816Z,20.5
2019-06-20T19:40:02.749Z,20.4
2019-06-20T19:45:01.805Z,20.3
2019-06-20T19:50:01.390Z,20.2
2019-06-20T19:55:01.551Z,20.1
2019-06-20T20:00:02.553Z,20
2019-06-20T20:05:17.662Z,19.8
2019-06-20T20:10:01.987Z,19.7
2019-06-20T20:15:01.663Z,19.7
2019-06-20T20:20:02.256Z,19.6
2019-06-20T20:25:01.625Z,19.4
2019-06-20T20:30:01.315Z,19.4
2019-06-20T20:35:01.522Z,19.2
2019-06-20T20:40:01.478Z,19.1
2019-06-20T20:45:01.688Z,19.1
2019-06-20T20:50:01.301Z,19
2019-06-20T20:55:01.632Z,18.9
2019-06-20T21:00:02.034Z,18.9
2019-06-20T21:05:01.819Z,18.8
2019-06-20T21:10:01.694Z,18.7
2019-06-20T21:15:01.816Z,18.7
2019-06-20T21:20:01.541Z,18.5
2019-06-20T21:25:02.423Z,18.5
2019-06-20T21:30:02.092Z,18.6
2019-06-20T21:35:01.446Z,18.6
2019-06-20T21:40:01.969Z,18.6
2019-06-20T21:45:02.120Z,18.6
2019-06-20T21:50:02.928Z,18.6
2019-06-20T21:55:01.804Z,18.6
2019-06-20T22:00:02.453Z,18.5
2019-06-20T22:05:01.929Z,18.5
2019-06-20T22:10:01.514Z,18.5
2019-06-20T22:15:01.856Z,18.5
2019-06-20T22:20:01.644Z,18.4
2019-06-20T22:25:01.953Z,18.3
2019-06-20T22:30:03.771Z,18.2
2019-06-20T22:35:01.336Z,18.2
2019-06-20T22:40:01.957Z,18.3
2019-06-20T22:45:01.753Z,18.3
2019-06-20T22:50:01.332Z,18.2
2019-06-20T22:55:01.339Z,18.2
2019-06-20T23:00:02.057Z,18.2
2019-06-20T23:05:01.719Z,18.2
2019-06-20T23:10:10.181Z,18.2
2019-06-20T23:15:01.421Z,18.2
2019-06-20T23:20:02.111Z,18.1
2019-06-20T23:25:01.896Z,18.1
2019-06-20T23:30:01.934Z,17.9
2019-06-20T23:35:01.412Z,17.9
2019-06-20T23:40:01.326Z,17.8
2019-06-20T23:45:02.305Z,17.7
2019-06-20T23:50:01.726Z,17.7
2019-06-20T23:55:01.803Z,17.6
